sensor_id;sensor_type;location;lat;lon;timestamp;P1;durP1;ratioP1;P2;durP2;ratioP2
35084;SDS011;21267;51.032;6.998;2023-03-26T00:01:43;14.55;;;2.65;;
35084;SDS011;21267;51.032;6.998;2023-03-26T00:04:25;13.27;;;2.70;;
35084;SDS011;21267;51.032;6.998;2023-03-26T00:06:57;22.00;;;4.07;;
35084;SDS011;21267;51.032;6.998;2023-03-26T00:09:35;20.75;;;4.05;;
35084;SDS011;21267;51.032;6.998;2023-03-26T00:12:05;13.45;;;3.28;;
35084;SDS011;21267;51.032;6.998;2023-03-26T00:14:49;16.52;;;3.80;;
35084;SDS011;21267;51.032;6.998;2023-03-26T00:17:21;17.73;;;3.67;;
35084;SDS011;21267;51.032;6.998;2023-03-26T00:20:01;10.40;;;2.00;;
35084;SDS011;21267;51.032;6.998;2023-03-26T00:22:55;18.33;;;3.17;;
35084;SDS011;21267;51.032;6.998;2023-03-26T00:25:45;10.32;;;2.53;;
35084;SDS011;21267;51.032;6.998;2023-03-26T00:31:05;19.83;;;4.07;;
35084;SDS011;21267;51.032;6.998;2023-03-26T00:33:50;22.10;;;3.97;;
35084;SDS011;21267;51.032;6.998;2023-03-26T00:36:36;22.42;;;3.53;;
35084;SDS011;21267;51.032;6.998;2023-03-26T00:39:04;17.58;;;4.15;;
35084;SDS011;21267;51.032;6.998;2023-03-26T00:41:46;16.77;;;2.92;;
35084;SDS011;21267;51.032;6.998;2023-03-26T00:44:29;19.67;;;3.55;;
35084;SDS011;21267;51.032;6.998;2023-03-26T00:47:00;14.02;;;2.63;;
35084;SDS011;21267;51.032;6.998;2023-03-26T00:49:30;17.92;;;4.30;;
35084;SDS011;21267;51.032;6.998;2023-03-26T00:52:26;21.75;;;3.00;;
35084;SDS011;21267;51.032;6.998;2023-03-26T00:55:01;18.38;;;3.65;;
35084;SDS011;21267;51.032;6.998;2023-03-26T01:01:38;20.92;;;3.47;;
35084;SDS011;21267;51.032;6.998;2023-03-26T01:04:23;18.75;;;3.20;;
35084;SDS011;21267;51.032;6.998;2023-03-26T01:07:02;17.42;;;3.42;;
35084;SDS011;21267;51.032;6.998;2023-03-26T01:09:36;17.02;;;3.47;;
35084;SDS011;21267;51.032;6.998;2023-03-26T01:12:09;17.90;;;3.45;;
35084;SDS011;21267;51.032;6.998;2023-03-26T01:14:41;18.95;;;3.85;;
35084;SDS011;21267;51.032;6.998;2023-03-26T01:17:09;18.10;;;3.83;;
35084;SDS011;21267;51.032;6.998;2023-03-26T01:22:21;18.88;;;3.33;;
35084;SDS011;21267;51.032;6.998;2023-03-26T01:24:50;20.13;;;3.80;;
35084;SDS011;21267;51.032;6.998;2023-03-26T01:29:53;17.48;;;3.80;;
35084;SDS011;21267;51.032;6.998;2023-03-26T01:37:38;18.50;;;3.25;;
35084;SDS011;21267;51.032;6.998;2023-03-26T01:40:17;14.00;;;3.28;;
35084;SDS011;21267;51.032;6.998;2023-03-26T01:45:31;22.80;;;4.07;;
35084;SDS011;21267;51.032;6.998;2023-03-26T01:48:01;18.55;;;4.38;;
35084;SDS011;21267;51.032;6.998;2023-03-26T01:50:30;18.00;;;4.35;;
35084;SDS011;21267;51.032;6.998;2023-03-26T01:52:57;17.42;;;4.00;;
35084;SDS011;21267;51.032;6.998;2023-03-26T01:55:25;19.00;;;4.63;;
35084;SDS011;21267;51.032;6.998;2023-03-26T02:01:03;25.63;;;4.13;;
35084;SDS011;21267;51.032;6.998;2023-03-26T02:03:54;15.98;;;3.45;;
35084;SDS011;21267;51.032;6.998;2023-03-26T02:06:44;21.10;;;4.60;;
35084;SDS011;21267;51.032;6.998;2023-03-26T02:09:15;21.33;;;4.88;;
35084;SDS011;21267;51.032;6.998;2023-03-26T02:11:47;22.70;;;4.32;;
35084;SDS011;21267;51.032;6.998;2023-03-26T02:14:16;28.65;;;5.88;;
35084;SDS011;21267;51.032;6.998;2023-03-26T02:16:43;20.40;;;5.55;;
35084;SDS011;21267;51.032;6.998;2023-03-26T02:19:13;15.48;;;3.78;;
35084;SDS011;21267;51.032;6.998;2023-03-26T02:21:47;22.45;;;5.13;;
35084;SDS011;21267;51.032;6.998;2023-03-26T02:24:20;26.08;;;6.03;;
35084;SDS011;21267;51.032;6.998;2023-03-26T02:26:53;20.25;;;5.80;;
35084;SDS011;21267;51.032;6.998;2023-03-26T02:29:21;18.90;;;5.25;;
35084;SDS011;21267;51.032;6.998;2023-03-26T02:31:54;16.37;;;4.67;;
35084;SDS011;21267;51.032;6.998;2023-03-26T02:34:21;21.55;;;5.35;;
35084;SDS011;21267;51.032;6.998;2023-03-26T02:36:53;23.13;;;5.72;;
35084;SDS011;21267;51.032;6.998;2023-03-26T02:39:22;21.15;;;4.28;;
35084;SDS011;21267;51.032;6.998;2023-03-26T02:41:54;23.55;;;5.50;;
35084;SDS011;21267;51.032;6.998;2023-03-26T02:44:21;20.33;;;4.68;;
35084;SDS011;21267;51.032;6.998;2023-03-26T02:46:51;15.25;;;4.63;;
35084;SDS011;21267;51.032;6.998;2023-03-26T02:49:19;19.60;;;4.28;;
35084;SDS011;21267;51.032;6.998;2023-03-26T02:51:46;17.70;;;4.93;;
35084;SDS011;21267;51.032;6.998;2023-03-26T02:54:13;23.35;;;6.45;;
35084;SDS011;21267;51.032;6.998;2023-03-26T02:56:42;20.77;;;5.00;;
35084;SDS011;21267;51.032;6.998;2023-03-26T02:59:09;18.20;;;4.20;;
35084;SDS011;21267;51.032;6.998;2023-03-26T03:01:36;20.87;;;5.10;;
35084;SDS011;21267;51.032;6.998;2023-03-26T03:04:09;25.63;;;6.10;;
35084;SDS011;21267;51.032;6.998;2023-03-26T03:06:39;20.27;;;4.90;;
35084;SDS011;21267;51.032;6.998;2023-03-26T03:09:07;17.57;;;4.20;;
35084;SDS011;21267;51.032;6.998;2023-03-26T03:11:34;18.55;;;3.78;;
35084;SDS011;21267;51.032;6.998;2023-03-26T03:14:05;14.50;;;3.40;;
35084;SDS011;21267;51.032;6.998;2023-03-26T03:16:33;12.73;;;2.55;;
35084;SDS011;21267;51.032;6.998;2023-03-26T03:19:00;16.43;;;3.27;;
35084;SDS011;21267;51.032;6.998;2023-03-26T03:21:27;21.20;;;5.07;;
35084;SDS011;21267;51.032;6.998;2023-03-26T03:23:55;17.92;;;3.42;;
35084;SDS011;21267;51.032;6.998;2023-03-26T03:26:25;11.07;;;2.45;;
35084;SDS011;21267;51.032;6.998;2023-03-26T03:28:53;15.18;;;3.15;;
35084;SDS011;21267;51.032;6.998;2023-03-26T03:31:24;18.55;;;3.08;;
35084;SDS011;21267;51.032;6.998;2023-03-26T03:36:22;10.50;;;2.50;;
35084;SDS011;21267;51.032;6.998;2023-03-26T03:38:49;16.65;;;2.92;;
35084;SDS011;21267;51.032;6.998;2023-03-26T03:41:17;12.35;;;3.35;;
35084;SDS011;21267;51.032;6.998;2023-03-26T03:43:44;10.87;;;2.73;;
35084;SDS011;21267;51.032;6.998;2023-03-26T03:46:14;12.98;;;3.03;;
35084;SDS011;21267;51.032;6.998;2023-03-26T03:48:41;14.53;;;2.97;;
35084;SDS011;21267;51.032;6.998;2023-03-26T03:51:17;15.05;;;2.30;;
35084;SDS011;21267;51.032;6.998;2023-03-26T03:53:56;13.50;;;2.75;;
35084;SDS011;21267;51.032;6.998;2023-03-26T03:56:26;15.32;;;3.40;;
35084;SDS011;21267;51.032;6.998;2023-03-26T03:58:56;13.27;;;2.97;;
35084;SDS011;21267;51.032;6.998;2023-03-26T04:01:23;12.35;;;2.85;;
35084;SDS011;21267;51.032;6.998;2023-03-26T04:03:51;12.48;;;3.30;;
35084;SDS011;21267;51.032;6.998;2023-03-26T04:08:46;12.77;;;2.80;;
35084;SDS011;21267;51.032;6.998;2023-03-26T04:11:13;14.50;;;3.07;;
35084;SDS011;21267;51.032;6.998;2023-03-26T04:13:41;16.40;;;3.60;;
35084;SDS011;21267;51.032;6.998;2023-03-26T04:16:13;17.40;;;3.45;;
35084;SDS011;21267;51.032;6.998;2023-03-26T04:18:43;13.55;;;3.03;;
35084;SDS011;21267;51.032;6.998;2023-03-26T04:21:11;14.07;;;3.45;;
35084;SDS011;21267;51.032;6.998;2023-03-26T04:23:52;15.30;;;4.00;;
35084;SDS011;21267;51.032;6.998;2023-03-26T04:26:19;15.95;;;3.13;;
35084;SDS011;21267;51.032;6.998;2023-03-26T04:28:48;13.57;;;3.10;;
35084;SDS011;21267;51.032;6.998;2023-03-26T04:31:22;15.95;;;4.32;;
35084;SDS011;21267;51.032;6.998;2023-03-26T04:34:41;13.73;;;3.45;;
35084;SDS011;21267;51.032;6.998;2023-03-26T04:36:51;15.20;;;3.50;;
35084;SDS011;21267;51.032;6.998;2023-03-26T04:39:22;17.65;;;4.10;;
35084;SDS011;21267;51.032;6.998;2023-03-26T04:41:49;19.45;;;3.67;;
35084;SDS011;21267;51.032;6.998;2023-03-26T04:44:17;18.02;;;3.70;;
35084;SDS011;21267;51.032;6.998;2023-03-26T04:46:48;20.45;;;3.63;;
35084;SDS011;21267;51.032;6.998;2023-03-26T04:49:21;19.73;;;3.53;;
35084;SDS011;21267;51.032;6.998;2023-03-26T04:51:48;12.75;;;2.78;;
35084;SDS011;21267;51.032;6.998;2023-03-26T04:57:04;13.10;;;2.78;;
35084;SDS011;21267;51.032;6.998;2023-03-26T04:59:41;11.32;;;3.20;;
35084;SDS011;21267;51.032;6.998;2023-03-26T05:02:09;20.13;;;3.80;;
35084;SDS011;21267;51.032;6.998;2023-03-26T05:04:38;14.02;;;3.95;;
35084;SDS011;21267;51.032;6.998;2023-03-26T05:07:06;14.98;;;3.08;;
35084;SDS011;21267;51.032;6.998;2023-03-26T05:09:32;13.73;;;4.00;;
35084;SDS011;21267;51.032;6.998;2023-03-26T05:11:59;18.23;;;3.27;;
35084;SDS011;21267;51.032;6.998;2023-03-26T05:14:27;16.13;;;2.83;;
35084;SDS011;21267;51.032;6.998;2023-03-26T05:16:56;15.45;;;2.92;;
35084;SDS011;21267;51.032;6.998;2023-03-26T05:19:23;13.20;;;2.63;;
35084;SDS011;21267;51.032;6.998;2023-03-26T05:21:50;16.15;;;3.47;;
35084;SDS011;21267;51.032;6.998;2023-03-26T05:24:17;10.82;;;4.47;;
35084;SDS011;21267;51.032;6.998;2023-03-26T05:26:47;16.75;;;3.28;;
35084;SDS011;21267;51.032;6.998;2023-03-26T05:29:16;12.43;;;2.67;;
35084;SDS011;21267;51.032;6.998;2023-03-26T05:31:44;16.20;;;3.28;;
35084;SDS011;21267;51.032;6.998;2023-03-26T05:34:19;12.30;;;3.22;;
35084;SDS011;21267;51.032;6.998;2023-03-26T05:36:46;11.57;;;3.20;;
35084;SDS011;21267;51.032;6.998;2023-03-26T05:41:41;15.00;;;3.50;;
35084;SDS011;21267;51.032;6.998;2023-03-26T05:44:08;13.60;;;3.03;;
35084;SDS011;21267;51.032;6.998;2023-03-26T05:46:35;13.80;;;3.03;;
35084;SDS011;21267;51.032;6.998;2023-03-26T05:49:02;13.80;;;3.22;;
35084;SDS011;21267;51.032;6.998;2023-03-26T05:51:29;14.23;;;3.25;;
35084;SDS011;21267;51.032;6.998;2023-03-26T05:53:59;10.98;;;2.85;;
35084;SDS011;21267;51.032;6.998;2023-03-26T05:56:28;12.98;;;3.72;;
35084;SDS011;21267;51.032;6.998;2023-03-26T05:58:55;13.17;;;3.03;;
35084;SDS011;21267;51.032;6.998;2023-03-26T06:01:22;13.90;;;3.03;;
35084;SDS011;21267;51.032;6.998;2023-03-26T06:03:51;15.85;;;3.00;;
35084;SDS011;21267;51.032;6.998;2023-03-26T06:06:21;14.05;;;2.88;;
35084;SDS011;21267;51.032;6.998;2023-03-26T06:08:50;13.98;;;2.88;;
35084;SDS011;21267;51.032;6.998;2023-03-26T06:11:27;14.10;;;2.72;;
35084;SDS011;21267;51.032;6.998;2023-03-26T06:13:54;16.10;;;3.65;;
35084;SDS011;21267;51.032;6.998;2023-03-26T06:16:21;18.60;;;3.03;;
35084;SDS011;21267;51.032;6.998;2023-03-26T06:18:53;17.30;;;3.72;;
35084;SDS011;21267;51.032;6.998;2023-03-26T06:21:23;9.95;;;2.85;;
35084;SDS011;21267;51.032;6.998;2023-03-26T06:23:51;17.35;;;3.95;;
35084;SDS011;21267;51.032;6.998;2023-03-26T06:28:59;14.45;;;3.28;;
35084;SDS011;21267;51.032;6.998;2023-03-26T06:33:43;16.00;;;4.55;;
35084;SDS011;21267;51.032;6.998;2023-03-26T06:36:20;17.05;;;3.83;;
35084;SDS011;21267;51.032;6.998;2023-03-26T06:38:49;20.42;;;3.92;;
35084;SDS011;21267;51.032;6.998;2023-03-26T06:41:17;13.77;;;3.47;;
35084;SDS011;21267;51.032;6.998;2023-03-26T06:43:58;18.38;;;4.25;;
35084;SDS011;21267;51.032;6.998;2023-03-26T06:46:25;21.90;;;4.20;;
35084;SDS011;21267;51.032;6.998;2023-03-26T06:48:55;14.45;;;4.15;;
35084;SDS011;21267;51.032;6.998;2023-03-26T06:51:41;14.00;;;4.40;;
35084;SDS011;21267;51.032;6.998;2023-03-26T06:54:23;20.07;;;4.97;;
35084;SDS011;21267;51.032;6.998;2023-03-26T06:56:57;15.73;;;4.30;;
35084;SDS011;21267;51.032;6.998;2023-03-26T06:59:26;14.32;;;4.50;;
35084;SDS011;21267;51.032;6.998;2023-03-26T07:01:56;13.95;;;4.45;;
35084;SDS011;21267;51.032;6.998;2023-03-26T07:04:23;20.38;;;4.40;;
35084;SDS011;21267;51.032;6.998;2023-03-26T07:06:58;17.45;;;4.93;;
35084;SDS011;21267;51.032;6.998;2023-03-26T07:09:43;15.50;;;4.57;;
35084;SDS011;21267;51.032;6.998;2023-03-26T07:12:11;20.70;;;3.55;;
35084;SDS011;21267;51.032;6.998;2023-03-26T07:15:01;14.57;;;4.13;;
35084;SDS011;21267;51.032;6.998;2023-03-26T07:17:50;17.85;;;4.18;;
35084;SDS011;21267;51.032;6.998;2023-03-26T07:20:42;21.95;;;4.60;;
35084;SDS011;21267;51.032;6.998;2023-03-26T07:26:24;18.98;;;6.10;;
35084;SDS011;21267;51.032;6.998;2023-03-26T07:32:06;14.18;;;3.25;;
35084;SDS011;21267;51.032;6.998;2023-03-26T07:47:31;15.65;;;3.83;;
35084;SDS011;21267;51.032;6.998;2023-03-26T07:50:05;17.88;;;4.20;;
35084;SDS011;21267;51.032;6.998;2023-03-26T07:52:51;14.93;;;3.75;;
35084;SDS011;21267;51.032;6.998;2023-03-26T07:55:49;17.63;;;3.55;;
35084;SDS011;21267;51.032;6.998;2023-03-26T08:01:41;13.82;;;4.10;;
35084;SDS011;21267;51.032;6.998;2023-03-26T08:04:23;15.95;;;4.60;;
35084;SDS011;21267;51.032;6.998;2023-03-26T08:16:06;19.10;;;5.00;;
35084;SDS011;21267;51.032;6.998;2023-03-26T08:22:16;16.30;;;4.22;;
35084;SDS011;21267;51.032;6.998;2023-03-26T08:25:03;20.08;;;3.70;;
35084;SDS011;21267;51.032;6.998;2023-03-26T08:31:23;13.00;;;4.25;;
35084;SDS011;21267;51.032;6.998;2023-03-26T09:51:14;8.73;;;2.95;;
35084;SDS011;21267;51.032;6.998;2023-03-26T09:54:57;5.70;;;2.60;;
35084;SDS011;21267;51.032;6.998;2023-03-26T10:22:55;4.30;;;1.75;;
35084;SDS011;21267;51.032;6.998;2023-03-26T10:25:22;3.65;;;1.80;;
35084;SDS011;21267;51.032;6.998;2023-03-26T10:36:27;3.40;;;1.70;;
35084;SDS011;21267;51.032;6.998;2023-03-26T10:56:06;3.08;;;0.95;;
35084;SDS011;21267;51.032;6.998;2023-03-26T10:58:55;2.28;;;1.30;;
35084;SDS011;21267;51.032;6.998;2023-03-26T11:01:41;4.38;;;1.50;;
35084;SDS011;21267;51.032;6.998;2023-03-26T11:04:47;7.03;;;2.05;;
35084;SDS011;21267;51.032;6.998;2023-03-26T11:09:57;5.10;;;1.98;;
35084;SDS011;21267;51.032;6.998;2023-03-26T11:12:34;2.45;;;0.95;;
35084;SDS011;21267;51.032;6.998;2023-03-26T11:15:39;2.97;;;1.23;;
35084;SDS011;21267;51.032;6.998;2023-03-26T11:18:47;4.68;;;1.70;;
35084;SDS011;21267;51.032;6.998;2023-03-26T11:21:25;7.47;;;2.80;;
35084;SDS011;21267;51.032;6.998;2023-03-26T11:24:14;3.78;;;1.42;;
35084;SDS011;21267;51.032;6.998;2023-03-26T11:26:55;7.65;;;3.10;;
35084;SDS011;21267;51.032;6.998;2023-03-26T11:32:24;3.50;;;1.52;;
35084;SDS011;21267;51.032;6.998;2023-03-26T11:35:00;4.13;;;2.03;;
35084;SDS011;21267;51.032;6.998;2023-03-26T11:38:10;3.80;;;2.15;;
35084;SDS011;21267;51.032;6.998;2023-03-26T11:40:57;3.17;;;1.50;;
35084;SDS011;21267;51.032;6.998;2023-03-26T11:43:34;6.43;;;2.28;;
35084;SDS011;21267;51.032;6.998;2023-03-26T11:46:09;4.07;;;1.73;;
35084;SDS011;21267;51.032;6.998;2023-03-26T11:48:45;4.50;;;1.75;;
35084;SDS011;21267;51.032;6.998;2023-03-26T11:51:50;4.88;;;2.83;;
35084;SDS011;21267;51.032;6.998;2023-03-26T11:54:16;2.70;;;1.23;;
35084;SDS011;21267;51.032;6.998;2023-03-26T11:56:47;2.85;;;2.13;;
35084;SDS011;21267;51.032;6.998;2023-03-26T11:59:33;2.67;;;1.50;;
35084;SDS011;21267;51.032;6.998;2023-03-26T12:02:26;6.75;;;1.73;;
35084;SDS011;21267;51.032;6.998;2023-03-26T12:07:48;3.42;;;1.88;;
35084;SDS011;21267;51.032;6.998;2023-03-26T12:10:27;6.85;;;2.10;;
35084;SDS011;21267;51.032;6.998;2023-03-26T12:16:20;8.68;;;3.38;;
35084;SDS011;21267;51.032;6.998;2023-03-26T12:19:02;68.63;;;44.65;;
35084;SDS011;21267;51.032;6.998;2023-03-26T12:22:05;5.20;;;2.30;;
35084;SDS011;21267;51.032;6.998;2023-03-26T12:24:30;5.45;;;1.90;;
35084;SDS011;21267;51.032;6.998;2023-03-26T12:27:18;4.50;;;2.55;;
35084;SDS011;21267;51.032;6.998;2023-03-26T12:30:09;6.00;;;3.28;;
35084;SDS011;21267;51.032;6.998;2023-03-26T12:32:46;4.20;;;2.00;;
35084;SDS011;21267;51.032;6.998;2023-03-26T12:35:21;9.02;;;5.07;;
35084;SDS011;21267;51.032;6.998;2023-03-26T12:37:54;2.35;;;1.52;;
35084;SDS011;21267;51.032;6.998;2023-03-26T12:40:30;8.73;;;5.43;;
35084;SDS011;21267;51.032;6.998;2023-03-26T12:43:00;4.80;;;1.33;;
35084;SDS011;21267;51.032;6.998;2023-03-26T12:46:23;2.70;;;1.37;;
35084;SDS011;21267;51.032;6.998;2023-03-26T12:49:19;1.40;;;1.10;;
35084;SDS011;21267;51.032;6.998;2023-03-26T12:51:55;2.75;;;1.50;;
35084;SDS011;21267;51.032;6.998;2023-03-26T12:54:49;2.85;;;1.40;;
35084;SDS011;21267;51.032;6.998;2023-03-26T12:57:46;3.55;;;1.90;;
35084;SDS011;21267;51.032;6.998;2023-03-26T13:00:51;11.18;;;7.20;;
35084;SDS011;21267;51.032;6.998;2023-03-26T13:03:24;4.18;;;1.52;;
35084;SDS011;21267;51.032;6.998;2023-03-26T13:09:32;4.68;;;2.90;;
35084;SDS011;21267;51.032;6.998;2023-03-26T13:34:35;2.17;;;1.52;;
35084;SDS011;21267;51.032;6.998;2023-03-26T13:48:41;2.78;;;1.10;;
35084;SDS011;21267;51.032;6.998;2023-03-26T13:51:20;3.05;;;1.05;;
35084;SDS011;21267;51.032;6.998;2023-03-26T13:53:56;1.98;;;1.15;;
35084;SDS011;21267;51.032;6.998;2023-03-26T13:56:30;1.47;;;1.00;;
35084;SDS011;21267;51.032;6.998;2023-03-26T13:59:11;3.28;;;1.35;;
35084;SDS011;21267;51.032;6.998;2023-03-26T14:01:54;2.00;;;1.13;;
35084;SDS011;21267;51.032;6.998;2023-03-26T14:04:26;2.13;;;1.40;;
35084;SDS011;21267;51.032;6.998;2023-03-26T14:07:07;1.83;;;1.65;;
35084;SDS011;21267;51.032;6.998;2023-03-26T14:09:52;1.55;;;1.15;;
35084;SDS011;21267;51.032;6.998;2023-03-26T14:15:30;5.32;;;3.58;;
35084;SDS011;21267;51.032;6.998;2023-03-26T14:32:36;6.32;;;3.63;;
35084;SDS011;21267;51.032;6.998;2023-03-26T14:35:40;2.67;;;1.90;;
35084;SDS011;21267;51.032;6.998;2023-03-26T14:41:20;10.95;;;7.05;;
35084;SDS011;21267;51.032;6.998;2023-03-26T14:47:33;2.95;;;1.00;;
35084;SDS011;21267;51.032;6.998;2023-03-26T14:50:32;1.77;;;1.17;;
35084;SDS011;21267;51.032;6.998;2023-03-26T14:56:10;0.88;;;0.73;;
35084;SDS011;21267;51.032;6.998;2023-03-26T15:19:30;0.90;;;0.90;;
35084;SDS011;21267;51.032;6.998;2023-03-26T15:28:25;2.90;;;1.33;;
35084;SDS011;21267;51.032;6.998;2023-03-26T15:36:53;2.50;;;2.13;;
35084;SDS011;21267;51.032;6.998;2023-03-26T15:45:33;1.95;;;1.27;;
35084;SDS011;21267;51.032;6.998;2023-03-26T16:04:48;1.33;;;0.82;;
35084;SDS011;21267;51.032;6.998;2023-03-26T16:10:53;1.60;;;0.70;;
35084;SDS011;21267;51.032;6.998;2023-03-26T16:18:36;0.80;;;0.60;;
35084;SDS011;21267;51.032;6.998;2023-03-26T16:29:23;3.75;;;2.17;;
35084;SDS011;21267;51.032;6.998;2023-03-26T16:35:21;0.88;;;0.82;;
35084;SDS011;21267;51.032;6.998;2023-03-26T16:37:41;1.70;;;1.30;;
35084;SDS011;21267;51.032;6.998;2023-03-26T16:50:53;2.17;;;1.10;;
35084;SDS011;21267;51.032;6.998;2023-03-26T16:53:35;2.35;;;1.20;;
35084;SDS011;21267;51.032;6.998;2023-03-26T16:59:01;1.40;;;1.15;;
35084;SDS011;21267;51.032;6.998;2023-03-26T17:01:55;3.33;;;0.95;;
35084;SDS011;21267;51.032;6.998;2023-03-26T17:04:30;2.55;;;1.13;;
35084;SDS011;21267;51.032;6.998;2023-03-26T17:12:30;1.05;;;0.88;;
35084;SDS011;21267;51.032;6.998;2023-03-26T17:25:53;3.33;;;1.30;;
35084;SDS011;21267;51.032;6.998;2023-03-26T17:36:58;4.00;;;1.65;;
35084;SDS011;21267;51.032;6.998;2023-03-26T17:44:56;3.45;;;1.92;;
35084;SDS011;21267;51.032;6.998;2023-03-26T17:50:03;2.93;;;1.90;;
35084;SDS011;21267;51.032;6.998;2023-03-26T17:52:43;4.57;;;2.55;;
35084;SDS011;21267;51.032;6.998;2023-03-26T17:58:48;5.50;;;3.75;;
35084;SDS011;21267;51.032;6.998;2023-03-26T18:01:36;4.40;;;3.60;;
35084;SDS011;21267;51.032;6.998;2023-03-26T18:04:07;8.07;;;4.38;;
35084;SDS011;21267;51.032;6.998;2023-03-26T18:18:17;9.70;;;4.55;;
35084;SDS011;21267;51.032;6.998;2023-03-26T18:21:03;9.02;;;3.80;;
35084;SDS011;21267;51.032;6.998;2023-03-26T18:23:38;13.98;;;4.45;;
35084;SDS011;21267;51.032;6.998;2023-03-26T18:26:11;10.70;;;3.65;;
35084;SDS011;21267;51.032;6.998;2023-03-26T18:28:42;11.77;;;3.40;;
35084;SDS011;21267;51.032;6.998;2023-03-26T18:31:44;13.82;;;4.05;;
35084;SDS011;21267;51.032;6.998;2023-03-26T18:34:11;11.68;;;3.97;;
35084;SDS011;21267;51.032;6.998;2023-03-26T18:36:40;14.38;;;5.15;;
35084;SDS011;21267;51.032;6.998;2023-03-26T18:39:10;10.98;;;3.63;;
35084;SDS011;21267;51.032;6.998;2023-03-26T18:41:41;13.75;;;3.28;;
35084;SDS011;21267;51.032;6.998;2023-03-26T18:44:14;15.32;;;3.55;;
35084;SDS011;21267;51.032;6.998;2023-03-26T18:46:43;16.55;;;4.70;;
35084;SDS011;21267;51.032;6.998;2023-03-26T18:49:13;15.83;;;4.00;;
35084;SDS011;21267;51.032;6.998;2023-03-26T18:51:42;15.32;;;3.67;;
35084;SDS011;21267;51.032;6.998;2023-03-26T18:54:22;12.48;;;3.92;;
35084;SDS011;21267;51.032;6.998;2023-03-26T18:56:50;18.15;;;3.95;;
35084;SDS011;21267;51.032;6.998;2023-03-26T19:01:54;13.05;;;4.80;;
35084;SDS011;21267;51.032;6.998;2023-03-26T19:04:24;7.95;;;3.58;;
35084;SDS011;21267;51.032;6.998;2023-03-26T19:06:54;13.98;;;3.45;;
35084;SDS011;21267;51.032;6.998;2023-03-26T19:09:22;14.27;;;4.40;;
35084;SDS011;21267;51.032;6.998;2023-03-26T19:11:58;12.35;;;3.50;;
35084;SDS011;21267;51.032;6.998;2023-03-26T19:14:32;17.67;;;4.93;;
35084;SDS011;21267;51.032;6.998;2023-03-26T19:17:16;15.48;;;4.18;;
35084;SDS011;21267;51.032;6.998;2023-03-26T19:19:44;15.88;;;4.72;;
35084;SDS011;21267;51.032;6.998;2023-03-26T19:22:13;14.25;;;4.07;;
35084;SDS011;21267;51.032;6.998;2023-03-26T19:24:42;16.65;;;3.67;;
35084;SDS011;21267;51.032;6.998;2023-03-26T19:27:09;13.93;;;3.88;;
35084;SDS011;21267;51.032;6.998;2023-03-26T19:29:37;12.90;;;3.40;;
35084;SDS011;21267;51.032;6.998;2023-03-26T19:32:04;12.60;;;3.85;;
35084;SDS011;21267;51.032;6.998;2023-03-26T19:34:42;14.32;;;3.40;;
35084;SDS011;21267;51.032;6.998;2023-03-26T19:37:17;14.13;;;3.20;;
35084;SDS011;21267;51.032;6.998;2023-03-26T19:39:48;11.27;;;3.28;;
35084;SDS011;21267;51.032;6.998;2023-03-26T19:42:23;14.35;;;2.92;;
35084;SDS011;21267;51.032;6.998;2023-03-26T19:45:12;11.18;;;3.33;;
35084;SDS011;21267;51.032;6.998;2023-03-26T19:47:42;19.25;;;3.40;;
35084;SDS011;21267;51.032;6.998;2023-03-26T19:50:23;11.68;;;2.97;;
35084;SDS011;21267;51.032;6.998;2023-03-26T19:55:50;18.52;;;3.50;;
35084;SDS011;21267;51.032;6.998;2023-03-26T19:58:18;9.70;;;2.90;;
35084;SDS011;21267;51.032;6.998;2023-03-26T20:00:48;18.23;;;4.05;;
35084;SDS011;21267;51.032;6.998;2023-03-26T20:03:15;15.88;;;3.38;;
35084;SDS011;21267;51.032;6.998;2023-03-26T20:05:49;8.00;;;2.95;;
35084;SDS011;21267;51.032;6.998;2023-03-26T20:08:37;18.50;;;3.65;;
35084;SDS011;21267;51.032;6.998;2023-03-26T20:30:14;16.23;;;3.28;;
35084;SDS011;21267;51.032;6.998;2023-03-26T20:36:37;13.95;;;2.88;;
